sensor_id;sensor_type;location;lat;lon;timestamp;pressure;altitude;pressure_sealevel;temperature;humidity
2397;BME280;1209;48.410;9.054;2023-11-21T00:00:13;95661.84;;;8.43;100.00
2397;BME280;1209;48.410;9.054;2023-11-21T00:02:40;95654.84;;;8.43;100.00
2397;BME280;1209;48.410;9.054;2023-11-21T00:05:10;95658.16;;;8.37;100.00
2397;BME280;1209;48.410;9.054;2023-11-21T00:07:36;95656.22;;;8.54;100.00
2397;BME280;1209;48.410;9.054;2023-11-21T00:10:03;95654.09;;;8.58;100.00
2397;BME280;1209;48.410;9.054;2023-11-21T00:12:31;95654.94;;;8.50;100.00
2397;BME280;1209;48.410;9.054;2023-11-21T00:14:58;95665.84;;;8.54;100.00
2397;BME280;1209;48.410;9.054;2023-11-21T00:17:24;95659.81;;;8.53;100.00
2397;BME280;1209;48.410;9.054;2023-11-21T00:19:49;95657.41;;;8.51;100.00
2397;BME280;1209;48.410;9.054;2023-11-21T00:22:15;95664.50;;;8.58;100.00
2397;BME280;1209;48.410;9.054;2023-11-21T00:24:41;95651.66;;;8.56;100.00
2397;BME280;1209;48.410;9.054;2023-11-21T00:27:06;95652.91;;;8.60;100.00
2397;BME280;1209;48.410;9.054;2023-11-21T00:29:31;95662.34;;;8.61;100.00
2397;BME280;1209;48.410;9.054;2023-11-21T00:31:57;95661.72;;;8.59;100.00
2397;BME280;1209;48.410;9.054;2023-11-21T00:34:23;95662.16;;;8.63;100.00
2397;BME280;1209;48.410;9.054;2023-11-21T00:36:48;95670.16;;;8.61;100.00
2397;BME280;1209;48.410;9.054;2023-11-21T00:39:14;95664.41;;;8.66;100.00
2397;BME280;1209;48.410;9.054;2023-11-21T00:41:39;95667.28;;;8.71;100.00
2397;BME280;1209;48.410;9.054;2023-11-21T00:44:04;95665.50;;;8.71;100.00
2397;BME280;1209;48.410;9.054;2023-11-21T00:46:31;95666.22;;;8.80;100.00
2397;BME280;1209;48.410;9.054;2023-11-21T00:48:57;95661.56;;;8.75;100.00
2397;BME280;1209;48.410;9.054;2023-11-21T00:51:22;95670.97;;;8.76;100.00
2397;BME280;1209;48.410;9.054;2023-11-21T00:53:48;95668.56;;;8.75;100.00
2397;BME280;1209;48.410;9.054;2023-11-21T00:56:13;95662.34;;;8.76;100.00
2397;BME280;1209;48.410;9.054;2023-11-21T00:58:40;95663.16;;;8.76;100.00
2397;BME280;1209;48.410;9.054;2023-11-21T01:01:11;95665.78;;;8.76;100.00
2397;BME280;1209;48.410;9.054;2023-11-21T01:03:36;95661.19;;;8.78;100.00
2397;BME280;1209;48.410;9.054;2023-11-21T01:06:02;95674.91;;;8.72;100.00
2397;BME280;1209;48.410;9.054;2023-11-21T01:08:27;95658.78;;;8.77;100.00
2397;BME280;1209;48.410;9.054;2023-11-21T01:10:53;95657.97;;;8.76;100.00
2397;BME280;1209;48.410;9.054;2023-11-21T01:13:19;95655.72;;;8.73;100.00
2397;BME280;1209;48.410;9.054;2023-11-21T01:15:45;95656.69;;;8.72;100.00
2397;BME280;1209;48.410;9.054;2023-11-21T01:18:10;95660.75;;;8.75;100.00
2397;BME280;1209;48.410;9.054;2023-11-21T01:20:35;95651.84;;;8.69;100.00
2397;BME280;1209;48.410;9.054;2023-11-21T01:23:01;95647.63;;;8.68;100.00
2397;BME280;1209;48.410;9.054;2023-11-21T01:25:26;95649.06;;;8.71;100.00
2397;BME280;1209;48.410;9.054;2023-11-21T01:27:51;95651.41;;;8.66;100.00
2397;BME280;1209;48.410;9.054;2023-11-21T01:30:17;95647.00;;;8.66;100.00
2397;BME280;1209;48.410;9.054;2023-11-21T01:32:44;95649.16;;;8.63;100.00
2397;BME280;1209;48.410;9.054;2023-11-21T01:35:09;95646.91;;;8.60;100.00
2397;BME280;1209;48.410;9.054;2023-11-21T01:37:36;95642.25;;;8.55;100.00
2397;BME280;1209;48.410;9.054;2023-11-21T01:40:01;95640.91;;;8.59;100.00
2397;BME280;1209;48.410;9.054;2023-11-21T01:42:27;95637.13;;;8.62;100.00
2397;BME280;1209;48.410;9.054;2023-11-21T01:44:54;95644.75;;;8.63;100.00
2397;BME280;1209;48.410;9.054;2023-11-21T01:47:20;95643.41;;;8.67;100.00
2397;BME280;1209;48.410;9.054;2023-11-21T01:49:46;95648.16;;;8.64;100.00
2397;BME280;1209;48.410;9.054;2023-11-21T01:52:12;95648.75;;;8.51;100.00
2397;BME280;1209;48.410;9.054;2023-11-21T01:54:38;95636.69;;;8.58;100.00
2397;BME280;1209;48.410;9.054;2023-11-21T01:57:04;95638.91;;;8.61;100.00
2397;BME280;1209;48.410;9.054;2023-11-21T01:59:35;95644.94;;;8.62;100.00
2397;BME280;1209;48.410;9.054;2023-11-21T02:02:03;95638.28;;;8.59;100.00
2397;BME280;1209;48.410;9.054;2023-11-21T02:04:30;95639.72;;;8.62;100.00
2397;BME280;1209;48.410;9.054;2023-11-21T02:06:56;95644.03;;;8.55;100.00
2397;BME280;1209;48.410;9.054;2023-11-21T02:09:28;95641.25;;;8.56;100.00
2397;BME280;1209;48.410;9.054;2023-11-21T02:11:58;95639.09;;;8.60;100.00
2397;BME280;1209;48.410;9.054;2023-11-21T02:14:27;95641.69;;;8.60;100.00
2397;BME280;1209;48.410;9.054;2023-11-21T02:16:53;95635.75;;;8.51;100.00
2397;BME280;1209;48.410;9.054;2023-11-21T02:19:20;95631.81;;;8.55;100.00
2397;BME280;1209;48.410;9.054;2023-11-21T02:21:49;95628.88;;;8.58;100.00
2397;BME280;1209;48.410;9.054;2023-11-21T02:24:15;95626.91;;;8.60;100.00
2397;BME280;1209;48.410;9.054;2023-11-21T02:26:40;95624.66;;;8.57;100.00
2397;BME280;1209;48.410;9.054;2023-11-21T02:29:06;95627.69;;;8.61;100.00
2397;BME280;1209;48.410;9.054;2023-11-21T02:31:35;95627.88;;;8.59;100.00
2397;BME280;1209;48.410;9.054;2023-11-21T02:34:02;95634.88;;;8.59;100.00
2397;BME280;1209;48.410;9.054;2023-11-21T02:36:28;95632.28;;;8.59;100.00
2397;BME280;1209;48.410;9.054;2023-11-21T02:38:53;95638.03;;;8.54;100.00
2397;BME280;1209;48.410;9.054;2023-11-21T02:41:18;95623.22;;;8.55;100.00
2397;BME280;1209;48.410;9.054;2023-11-21T02:43:44;95633.13;;;8.51;100.00
2397;BME280;1209;48.410;9.054;2023-11-21T02:46:09;95627.63;;;8.54;100.00
2397;BME280;1209;48.410;9.054;2023-11-21T02:48:34;95632.34;;;8.50;100.00
2397;BME280;1209;48.410;9.054;2023-11-21T02:51:01;95623.09;;;8.48;100.00
2397;BME280;1209;48.410;9.054;2023-11-21T02:53:26;95626.56;;;8.40;100.00
2397;BME280;1209;48.410;9.054;2023-11-21T02:55:51;95624.03;;;8.32;100.00
2397;BME280;1209;48.410;9.054;2023-11-21T02:58:17;95625.50;;;8.35;100.00
2397;BME280;1209;48.410;9.054;2023-11-21T03:00:42;95630.53;;;8.36;100.00
2397;BME280;1209;48.410;9.054;2023-11-21T03:03:07;95626.47;;;8.34;100.00
2397;BME280;1209;48.410;9.054;2023-11-21T03:05:33;95628.59;;;8.30;100.00
2397;BME280;1209;48.410;9.054;2023-11-21T03:08:00;95627.44;;;8.33;100.00
2397;BME280;1209;48.410;9.054;2023-11-21T03:10:26;95623.22;;;8.32;100.00
2397;BME280;1209;48.410;9.054;2023-11-21T03:12:52;95618.72;;;8.26;100.00
2397;BME280;1209;48.410;9.054;2023-11-21T03:15:17;95627.97;;;8.28;100.00
2397;BME280;1209;48.410;9.054;2023-11-21T03:17:43;95620.34;;;8.27;100.00
2397;BME280;1209;48.410;9.054;2023-11-21T03:20:08;95627.84;;;8.21;100.00
2397;BME280;1209;48.410;9.054;2023-11-21T03:22:36;95627.84;;;8.21;100.00
2397;BME280;1209;48.410;9.054;2023-11-21T03:25:01;95629.75;;;8.28;100.00
2397;BME280;1209;48.410;9.054;2023-11-21T03:27:27;95624.03;;;8.32;100.00
2397;BME280;1209;48.410;9.054;2023-11-21T03:29:52;95621.56;;;8.39;100.00
2397;BME280;1209;48.410;9.054;2023-11-21T03:32:17;95621.91;;;8.36;100.00
2397;BME280;1209;48.410;9.054;2023-11-21T03:34:54;95623.13;;;8.25;100.00
2397;BME280;1209;48.410;9.054;2023-11-21T03:37:21;95623.00;;;8.18;100.00
2397;BME280;1209;48.410;9.054;2023-11-21T03:39:46;95631.63;;;8.19;100.00
2397;BME280;1209;48.410;9.054;2023-11-21T03:42:12;95630.81;;;8.18;100.00
2397;BME280;1209;48.410;9.054;2023-11-21T03:44:37;95633.31;;;8.12;100.00
2397;BME280;1209;48.410;9.054;2023-11-21T03:47:02;95634.75;;;8.14;100.00
2397;BME280;1209;48.410;9.054;2023-11-21T03:49:28;95627.66;;;8.08;100.00
2397;BME280;1209;48.410;9.054;2023-11-21T03:51:54;95630.59;;;8.05;100.00
2397;BME280;1209;48.410;9.054;2023-11-21T03:54:19;95622.00;;;8.05;100.00
2397;BME280;1209;48.410;9.054;2023-11-21T03:56:45;95630.47;;;7.99;100.00
2397;BME280;1209;48.410;9.054;2023-11-21T03:59:10;95626.88;;;8.00;100.00
2397;BME280;1209;48.410;9.054;2023-11-21T04:01:36;95621.84;;;7.98;100.00
2397;BME280;1209;48.410;9.054;2023-11-21T04:04:02;95624.59;;;8.05;100.00
2397;BME280;1209;48.410;9.054;2023-11-21T04:06:27;95622.00;;;8.05;100.00
2397;BME280;1209;48.410;9.054;2023-11-21T04:08:52;95624.00;;;7.95;100.00
2397;BME280;1209;48.410;9.054;2023-11-21T04:11:18;95623.34;;;7.93;100.00
2397;BME280;1209;48.410;9.054;2023-11-21T04:13:43;95625.16;;;7.92;100.00
2397;BME280;1209;48.410;9.054;2023-11-21T04:16:09;95621.69;;;8.00;100.00
2397;BME280;1209;48.410;9.054;2023-11-21T04:18:38;95629.66;;;7.98;100.00
2397;BME280;1209;48.410;9.054;2023-11-21T04:21:06;95634.00;;;8.06;100.00
2397;BME280;1209;48.410;9.054;2023-11-21T04:23:33;95628.56;;;8.15;100.00
2397;BME280;1209;48.410;9.054;2023-11-21T04:25:58;95628.28;;;8.10;100.00
2397;BME280;1209;48.410;9.054;2023-11-21T04:28:24;95631.34;;;8.14;100.00
2397;BME280;1209;48.410;9.054;2023-11-21T04:30:50;95635.28;;;8.10;100.00
2397;BME280;1209;48.410;9.054;2023-11-21T04:33:15;95631.78;;;8.17;100.00
2397;BME280;1209;48.410;9.054;2023-11-21T04:35:41;95640.41;;;8.18;100.00
2397;BME280;1209;48.410;9.054;2023-11-21T04:38:06;95642.94;;;8.03;100.00
2397;BME280;1209;48.410;9.054;2023-11-21T04:40:32;95639.31;;;8.12;100.00
2397;BME280;1209;48.410;9.054;2023-11-21T04:42:57;95640.13;;;8.13;100.00
2397;BME280;1209;48.410;9.054;2023-11-21T04:45:22;95646.94;;;8.14;100.00
2397;BME280;1209;48.410;9.054;2023-11-21T04:47:48;95642.91;;;8.11;100.00
2397;BME280;1209;48.410;9.054;2023-11-21T04:50:13;95637.91;;;8.25;100.00
2397;BME280;1209;48.410;9.054;2023-11-21T04:52:38;95644.16;;;8.38;100.00
2397;BME280;1209;48.410;9.054;2023-11-21T04:55:04;95641.28;;;8.33;100.00
2397;BME280;1209;48.410;9.054;2023-11-21T04:57:32;95641.91;;;8.35;100.00
2397;BME280;1209;48.410;9.054;2023-11-21T04:59:57;95648.25;;;8.33;100.00
2397;BME280;1209;48.410;9.054;2023-11-21T05:02:22;95652.19;;;8.29;100.00
2397;BME280;1209;48.410;9.054;2023-11-21T05:04:48;95650.22;;;8.31;100.00
2397;BME280;1209;48.410;9.054;2023-11-21T05:07:13;95654.16;;;8.27;100.00
2397;BME280;1209;48.410;9.054;2023-11-21T05:09:42;95660.78;;;8.29;100.00
2397;BME280;1209;48.410;9.054;2023-11-21T05:12:12;95657.84;;;8.32;100.00
2397;BME280;1209;48.410;9.054;2023-11-21T05:14:37;95662.91;;;8.34;100.00
2397;BME280;1209;48.410;9.054;2023-11-21T05:17:03;95660.75;;;8.37;100.00
2397;BME280;1209;48.410;9.054;2023-11-21T05:19:29;95658.59;;;8.41;100.00
2397;BME280;1209;48.410;9.054;2023-11-21T05:21:54;95647.22;;;8.42;100.00
2397;BME280;1209;48.410;9.054;2023-11-21T05:24:20;95663.34;;;8.37;100.00
2397;BME280;1209;48.410;9.054;2023-11-21T05:26:45;95663.22;;;8.31;100.00
2397;BME280;1209;48.410;9.054;2023-11-21T05:29:10;95669.53;;;8.36;100.00
2397;BME280;1209;48.410;9.054;2023-11-21T05:31:36;95668.38;;;8.39;100.00
2397;BME280;1209;48.410;9.054;2023-11-21T05:34:02;95672.50;;;8.33;100.00
2397;BME280;1209;48.410;9.054;2023-11-21T05:36:28;95674.25;;;8.33;100.00
2397;BME280;1209;48.410;9.054;2023-11-21T05:38:53;95674.75;;;8.36;100.00
2397;BME280;1209;48.410;9.054;2023-11-21T05:41:18;95669.47;;;8.21;100.00
2397;BME280;1209;48.410;9.054;2023-11-21T05:43:44;95670.09;;;8.24;100.00
2397;BME280;1209;48.410;9.054;2023-11-21T05:46:09;95671.72;;;8.25;100.00
2397;BME280;1209;48.410;9.054;2023-11-21T05:48:34;95679.16;;;8.28;100.00
2397;BME280;1209;48.410;9.054;2023-11-21T05:51:04;95671.78;;;8.16;100.00
2397;BME280;1209;48.410;9.054;2023-11-21T05:53:29;95674.56;;;8.15;100.00
2397;BME280;1209;48.410;9.054;2023-11-21T05:55:55;95677.44;;;8.20;100.00
2397;BME280;1209;48.410;9.054;2023-11-21T05:58:20;95676.91;;;8.02;100.00
2397;BME280;1209;48.410;9.054;2023-11-21T06:00:46;95680.47;;;8.09;100.00
2397;BME280;1209;48.410;9.054;2023-11-21T06:03:11;95685.22;;;7.97;100.00
2397;BME280;1209;48.410;9.054;2023-11-21T06:05:37;95684.88;;;8.00;100.00
2397;BME280;1209;48.410;9.054;2023-11-21T06:08:02;95682.69;;;7.89;100.00
2397;BME280;1209;48.410;9.054;2023-11-21T06:10:28;95689.69;;;7.88;100.00
2397;BME280;1209;48.410;9.054;2023-11-21T06:12:53;95695.97;;;7.94;100.00
2397;BME280;1209;48.410;9.054;2023-11-21T06:15:18;95697.31;;;7.90;100.00
2397;BME280;1209;48.410;9.054;2023-11-21T06:17:46;95692.19;;;8.05;100.00
2397;BME280;1209;48.410;9.054;2023-11-21T06:20:14;95699.94;;;7.82;100.00
2397;BME280;1209;48.410;9.054;2023-11-21T06:22:42;95704.50;;;7.80;100.00
2397;BME280;1209;48.410;9.054;2023-11-21T06:25:08;95704.81;;;7.85;100.00
2397;BME280;1209;48.410;9.054;2023-11-21T06:27:37;95707.00;;;7.96;100.00
2397;BME280;1209;48.410;9.054;2023-11-21T06:30:03;95711.28;;;7.89;100.00
2397;BME280;1209;48.410;9.054;2023-11-21T06:32:29;95716.53;;;8.04;100.00
2397;BME280;1209;48.410;9.054;2023-11-21T06:34:55;95719.63;;;8.07;100.00
2397;BME280;1209;48.410;9.054;2023-11-21T06:37:20;95731.72;;;7.92;100.00
2397;BME280;1209;48.410;9.054;2023-11-21T06:39:49;95739.00;;;7.97;100.00
2397;BME280;1209;48.410;9.054;2023-11-21T06:42:17;95735.91;;;8.01;100.00
2397;BME280;1209;48.410;9.054;2023-11-21T06:44:42;95741.66;;;7.88;100.00
2397;BME280;1209;48.410;9.054;2023-11-21T06:47:08;95741.09;;;8.01;100.00
2397;BME280;1209;48.410;9.054;2023-11-21T06:49:33;95747.09;;;8.02;100.00
2397;BME280;1209;48.410;9.054;2023-11-21T06:51:59;95743.75;;;7.93;100.00
2397;BME280;1209;48.410;9.054;2023-11-21T06:54:24;95746.19;;;7.95;100.00
2397;BME280;1209;48.410;9.054;2023-11-21T06:56:50;95741.66;;;7.88;100.00
2397;BME280;1209;48.410;9.054;2023-11-21T06:59:15;95748.72;;;8.03;100.00
2397;BME280;1209;48.410;9.054;2023-11-21T07:01:41;95752.81;;;8.05;100.00
2397;BME280;1209;48.410;9.054;2023-11-21T07:04:07;95755.75;;;7.94;100.00
2397;BME280;1209;48.410;9.054;2023-11-21T07:06:32;95764.22;;;7.96;100.00
2397;BME280;1209;48.410;9.054;2023-11-21T07:08:58;95766.63;;;7.98;100.00
2397;BME280;1209;48.410;9.054;2023-11-21T07:11:24;95764.84;;;7.98;100.00
2397;BME280;1209;48.410;9.054;2023-11-21T07:13:50;95772.00;;;8.04;100.00
2397;BME280;1209;48.410;9.054;2023-11-21T07:16:16;95773.59;;;8.05;100.00
2397;BME280;1209;48.410;9.054;2023-11-21T07:18:41;95767.28;;;8.00;100.00
2397;BME280;1209;48.410;9.054;2023-11-21T07:21:06;95777.19;;;7.96;100.00
2397;BME280;1209;48.410;9.054;2023-11-21T07:23:33;95778.19;;;7.95;100.00
2397;BME280;1209;48.410;9.054;2023-11-21T07:25:58;95773.28;;;8.00;100.00
2397;BME280;1209;48.410;9.054;2023-11-21T07:28:24;95763.69;;;8.01;100.00
2397;BME280;1209;48.410;9.054;2023-11-21T07:30:51;95766.78;;;8.04;100.00
2397;BME280;1209;48.410;9.054;2023-11-21T07:33:16;95774.59;;;7.96;100.00
2397;BME280;1209;48.410;9.054;2023-11-21T07:35:42;95777.81;;;8.06;100.00
2397;BME280;1209;48.410;9.054;2023-11-21T07:38:07;95780.28;;;8.31;100.00
2397;BME280;1209;48.410;9.054;2023-11-21T07:40:33;95786.50;;;8.21;100.00
2397;BME280;1209;48.410;9.054;2023-11-21T07:42:58;95784.47;;;8.09;100.00
2397;BME280;1209;48.410;9.054;2023-11-21T07:45:25;95780.59;;;8.05;100.00
2397;BME280;1209;48.410;9.054;2023-11-21T07:47:53;95789.97;;;8.14;100.00
2397;BME280;1209;48.410;9.054;2023-11-21T07:50:18;95793.63;;;8.28;100.00
2397;BME280;1209;48.410;9.054;2023-11-21T07:52:45;95792.97;;;8.34;100.00
2397;BME280;1209;48.410;9.054;2023-11-21T07:55:10;95786.72;;;8.43;100.00
2397;BME280;1209;48.410;9.054;2023-11-21T07:57:36;95797.75;;;8.45;100.00
2397;BME280;1209;48.410;9.054;2023-11-21T08:00:02;95797.13;;;8.43;100.00
2397;BME280;1209;48.410;9.054;2023-11-21T08:02:28;95800.38;;;8.45;100.00
2397;BME280;1209;48.410;9.054;2023-11-21T08:04:54;95798.75;;;8.44;100.00
2397;BME280;1209;48.410;9.054;2023-11-21T08:07:21;95795.00;;;8.46;100.00
2397;BME280;1209;48.410;9.054;2023-11-21T08:09:47;95787.00;;;8.48;100.00
2397;BME280;1209;48.410;9.054;2023-11-21T08:12:14;95797.22;;;8.58;100.00
2397;BME280;1209;48.410;9.054;2023-11-21T08:14:40;95795.78;;;8.55;100.00
2397;BME280;1209;48.410;9.054;2023-11-21T08:17:05;95793.16;;;8.55;100.00
2397;BME280;1209;48.410;9.054;2023-11-21T08:19:31;95799.59;;;8.67;100.00
2397;BME280;1209;48.410;9.054;2023-11-21T08:21:58;95801.44;;;8.59;100.00
2397;BME280;1209;48.410;9.054;2023-11-21T08:24:24;95802.25;;;8.59;100.00
2397;BME280;1209;48.410;9.054;2023-11-21T08:26:49;95802.25;;;8.59;100.00
2397;BME280;1209;48.410;9.054;2023-11-21T08:29:16;95805.78;;;8.66;100.00
2397;BME280;1209;48.410;9.054;2023-11-21T08:31:41;95809.34;;;8.65;100.00
2397;BME280;1209;48.410;9.054;2023-11-21T08:34:07;95811.97;;;8.65;100.00
2397;BME280;1209;48.410;9.054;2023-11-21T08:36:33;95808.97;;;8.54;100.00
2397;BME280;1209;48.410;9.054;2023-11-21T08:38:59;95803.56;;;8.55;100.00
2397;BME280;1209;48.410;9.054;2023-11-21T08:41:24;95810.44;;;8.71;100.00
2397;BME280;1209;48.410;9.054;2023-11-21T08:43:50;95817.91;;;8.74;100.00
2397;BME280;1209;48.410;9.054;2023-11-21T08:46:16;95823.75;;;8.76;100.00
2397;BME280;1209;48.410;9.054;2023-11-21T08:48:43;95818.78;;;8.66;100.00
2397;BME280;1209;48.410;9.054;2023-11-21T08:51:10;95825.31;;;8.85;100.00
2397;BME280;1209;48.410;9.054;2023-11-21T08:53:36;95819.28;;;8.84;100.00
2397;BME280;1209;48.410;9.054;2023-11-21T08:56:03;95825.91;;;8.72;100.00
2397;BME280;1209;48.410;9.054;2023-11-21T08:58:29;95819.72;;;8.73;100.00
2397;BME280;1209;48.410;9.054;2023-11-21T09:00:55;95828.84;;;8.69;100.00
2397;BME280;1209;48.410;9.054;2023-11-21T09:03:21;95826.53;;;8.74;100.00
2397;BME280;1209;48.410;9.054;2023-11-21T09:05:46;95828.50;;;8.72;100.00
2397;BME280;1209;48.410;9.054;2023-11-21T09:08:11;95828.16;;;8.75;100.00
2397;BME280;1209;48.410;9.054;2023-11-21T09:10:37;95839.84;;;8.79;100.00
2397;BME280;1209;48.410;9.054;2023-11-21T09:13:02;95839.38;;;8.76;100.00
2397;BME280;1209;48.410;9.054;2023-11-21T09:15:28;95842.97;;;8.75;100.00
2397;BME280;1209;48.410;9.054;2023-11-21T09:17:53;95839.03;;;8.79;100.00
2397;BME280;1209;48.410;9.054;2023-11-21T09:20:18;95842.09;;;8.82;100.00
2397;BME280;1209;48.410;9.054;2023-11-21T09:22:48;95845.50;;;8.83;100.00
2397;BME280;1209;48.410;9.054;2023-11-21T09:25:13;95844.97;;;8.88;100.00
2397;BME280;1209;48.410;9.054;2023-11-21T09:27:39;95845.84;;;8.80;100.00
2397;BME280;1209;48.410;9.054;2023-11-21T09:30:05;95850.13;;;8.73;100.00
2397;BME280;1209;48.410;9.054;2023-11-21T09:32:33;95847.66;;;8.79;100.00
2397;BME280;1209;48.410;9.054;2023-11-21T09:35:00;95847.19;;;8.76;100.00
2397;BME280;1209;48.410;9.054;2023-11-21T09:37:27;95852.97;;;8.86;100.00
2397;BME280;1209;48.410;9.054;2023-11-21T09:39:52;95860.94;;;8.84;100.00
2397;BME280;1209;48.410;9.054;2023-11-21T09:42:23;95862.00;;;8.75;100.00
2397;BME280;1209;48.410;9.054;2023-11-21T09:45:06;95855.69;;;8.93;100.00
2397;BME280;1209;48.410;9.054;2023-11-21T09:47:38;95866.06;;;9.01;100.00
2397;BME280;1209;48.410;9.054;2023-11-21T09:50:04;95865.53;;;9.05;100.00
2397;BME280;1209;48.410;9.054;2023-11-21T09:52:39;95865.72;;;9.04;100.00
2397;BME280;1209;48.410;9.054;2023-11-21T09:55:08;95867.91;;;9.15;100.00
2397;BME280;1209;48.410;9.054;2023-11-21T09:57:38;95867.47;;;9.26;100.00
2397;BME280;1209;48.410;9.054;2023-11-21T10:00:04;95875.53;;;9.17;100.00
2397;BME280;1209;48.410;9.054;2023-11-21T10:02:32;95864.66;;;9.13;100.00
2397;BME280;1209;48.410;9.054;2023-11-21T10:05:02;95869.16;;;9.19;100.00
2397;BME280;1209;48.410;9.054;2023-11-21T10:07:28;95863.50;;;9.15;100.00
2397;BME280;1209;48.410;9.054;2023-11-21T10:09:54;95867.91;;;9.15;100.00
2397;BME280;1209;48.410;9.054;2023-11-21T10:12:21;95872.25;;;9.00;100.00
2397;BME280;1209;48.410;9.054;2023-11-21T10:14:48;95871.56;;;9.06;100.00
2397;BME280;1209;48.410;9.054;2023-11-21T10:17:15;95865.66;;;9.12;100.00
2397;BME280;1209;48.410;9.054;2023-11-21T10:19:46;95871.19;;;9.09;100.00
2397;BME280;1209;48.410;9.054;2023-11-21T10:22:14;95874.34;;;9.04;100.00
2397;BME280;1209;48.410;9.054;2023-11-21T10:24:40;95880.53;;;9.03;100.00
2397;BME280;1209;48.410;9.054;2023-11-21T10:27:05;95872.94;;;8.94;100.00
2397;BME280;1209;48.410;9.054;2023-11-21T10:29:31;95878.44;;;8.99;100.00
2397;BME280;1209;48.410;9.054;2023-11-21T10:32:01;95881.31;;;8.81;100.00
2397;BME280;1209;48.410;9.054;2023-11-21T10:34:27;95874.59;;;8.87;100.00
2397;BME280;1209;48.410;9.054;2023-11-21T10:36:53;95875.94;;;8.82;100.00
2397;BME280;1209;48.410;9.054;2023-11-21T10:39:19;95880.28;;;8.67;100.00
2397;BME280;1209;48.410;9.054;2023-11-21T10:41:46;95880.28;;;8.67;100.00
2397;BME280;1209;48.410;9.054;2023-11-21T10:44:16;95874.66;;;8.78;100.00
2397;BME280;1209;48.410;9.054;2023-11-21T10:46:53;95880.97;;;8.84;100.00
2397;BME280;1209;48.410;9.054;2023-11-21T10:49:25;95885.81;;;8.87;100.00
2397;BME280;1209;48.410;9.054;2023-11-21T10:51:53;95883.75;;;8.82;100.00
2397;BME280;1209;48.410;9.054;2023-11-21T10:56:47;95882.41;;;8.87;100.00
2397;BME280;1209;48.410;9.054;2023-11-21T10:59:13;95887.63;;;8.87;100.00
2397;BME280;1209;48.410;9.054;2023-11-21T11:01:42;95883.88;;;8.89;100.00
2397;BME280;1209;48.410;9.054;2023-11-21T11:04:09;95883.34;;;8.94;100.00
2397;BME280;1209;48.410;9.054;2023-11-21T11:06:49;95880.09;;;8.92;100.00
2397;BME280;1209;48.410;9.054;2023-11-21T11:09:16;95878.19;;;8.86;100.00
2397;BME280;1209;48.410;9.054;2023-11-21T11:11:42;95875.25;;;8.89;100.00
2397;BME280;1209;48.410;9.054;2023-11-21T11:14:13;95872.56;;;8.97;100.00
2397;BME280;1209;48.410;9.054;2023-11-21T11:16:41;95864.59;;;8.98;100.00
2397;BME280;1209;48.410;9.054;2023-11-21T11:19:07;95867.25;;;8.90;100.00
2397;BME280;1209;48.410;9.054;2023-11-21T11:33:41;95882.53;;;8.93;100.00
2397;BME280;1209;48.410;9.054;2023-11-21T11:38:33;95877.91;;;8.80;100.00
2397;BME280;1209;48.410;9.054;2023-11-21T11:41:02;95875.00;;;8.75;100.00
2397;BME280;1209;48.410;9.054;2023-11-21T11:43:29;95871.13;;;8.71;100.00
2397;BME280;1209;48.410;9.054;2023-11-21T11:45:58;95876.97;;;8.73;100.00
2397;BME280;1209;48.410;9.054;2023-11-21T11:48:28;95876.34;;;8.71;100.00
2397;BME280;1209;48.410;9.054;2023-11-21T11:53:35;95878.78;;;8.73;100.00
2397;BME280;1209;48.410;9.054;2023-11-21T11:58:44;95878.13;;;8.94;100.00
2397;BME280;1209;48.410;9.054;2023-11-21T12:01:11;95878.94;;;8.94;100.00
2397;BME280;1209;48.410;9.054;2023-11-21T12:03:37;95881.38;;;8.96;100.00
2397;BME280;1209;48.410;9.054;2023-11-21T12:06:02;95878.81;;;8.88;100.00
2397;BME280;1209;48.410;9.054;2023-11-21T12:08:28;95884.66;;;8.90;100.00
2397;BME280;1209;48.410;9.054;2023-11-21T12:10:57;95882.94;;;8.82;100.00
2397;BME280;1209;48.410;9.054;2023-11-21T12:13:22;95880.84;;;8.77;100.00
2397;BME280;1209;48.410;9.054;2023-11-21T12:15:48;95878.94;;;8.71;100.00
2397;BME280;1209;48.410;9.054;2023-11-21T12:18:14;95883.75;;;8.82;100.00
2397;BME280;1209;48.410;9.054;2023-11-21T12:20:39;95888.59;;;8.86;100.00
2397;BME280;1209;48.410;9.054;2023-11-21T12:23:06;95882.31;;;8.80;100.00
2397;BME280;1209;48.410;9.054;2023-11-21T12:25:34;95879.00;;;8.86;100.00
2397;BME280;1209;48.410;9.054;2023-11-21T12:28:01;95884.56;;;8.83;100.00
2397;BME280;1209;48.410;9.054;2023-11-21T12:30:29;95884.66;;;8.90;100.00
2397;BME280;1209;48.410;9.054;2023-11-21T12:32:57;95892.78;;;8.95;100.00
2397;BME280;1209;48.410;9.054;2023-11-21T12:35:27;95889.53;;;8.93;100.00
2397;BME280;1209;48.410;9.054;2023-11-21T12:37:55;95893.59;;;8.95;100.00
2397;BME280;1209;48.410;9.054;2023-11-21T12:40:21;95899.38;;;8.82;100.00
2397;BME280;1209;48.410;9.054;2023-11-21T12:42:49;95897.22;;;8.63;100.00
2397;BME280;1209;48.410;9.054;2023-11-21T12:45:21;95902.03;;;8.74;100.00
2397;BME280;1209;48.410;9.054;2023-11-21T12:47:49;95902.41;;;8.63;100.00
2397;BME280;1209;48.410;9.054;2023-11-21T12:50:24;95906.47;;;8.66;100.00
2397;BME280;1209;48.410;9.054;2023-11-21T12:52:55;95890.00;;;8.73;100.00
2397;BME280;1209;48.410;9.054;2023-11-21T12:55:23;95899.47;;;8.66;100.00
2397;BME280;1209;48.410;9.054;2023-11-21T12:57:53;95902.06;;;8.66;100.00
2397;BME280;1209;48.410;9.054;2023-11-21T13:00:31;95909.59;;;8.61;100.00
2397;BME280;1209;48.410;9.054;2023-11-21T13:02:58;95899.81;;;8.63;100.00
2397;BME280;1209;48.410;9.054;2023-11-21T13:05:28;95903.84;;;8.35;100.00
2397;BME280;1209;48.410;9.054;2023-11-21T13:07:58;95899.22;;;8.53;100.00
2397;BME280;1209;48.410;9.054;2023-11-21T13:10:26;95896.28;;;8.56;100.00
2397;BME280;1209;48.410;9.054;2023-11-21T13:12:55;95893.34;;;8.51;100.00
2397;BME280;1209;48.410;9.054;2023-11-21T13:15:23;95903.41;;;8.62;100.00
2397;BME280;1209;48.410;9.054;2023-11-21T13:17:50;95899.47;;;8.89;100.00
2397;BME280;1209;48.410;9.054;2023-11-21T13:20:16;95906.03;;;8.85;100.00
2397;BME280;1209;48.410;9.054;2023-11-21T13:22:57;95914.59;;;8.94;100.00
2397;BME280;1209;48.410;9.054;2023-11-21T13:25:25;95914.09;;;8.67;100.00
2397;BME280;1209;48.410;9.054;2023-11-21T13:27:57;95916.41;;;8.62;100.00
2397;BME280;1209;48.410;9.054;2023-11-21T13:30:24;95920.78;;;8.93;100.00
2397;BME280;1209;48.410;9.054;2023-11-21T13:32:58;95916.81;;;9.05;100.00
2397;BME280;1209;48.410;9.054;2023-11-21T13:35:27;95918.44;;;9.06;100.00
2397;BME280;1209;48.410;9.054;2023-11-21T13:38:05;95926.25;;;9.06;100.00
2397;BME280;1209;48.410;9.054;2023-11-21T13:40:31;95927.66;;;8.86;100.00